Time;durP1;ratioP1;P1;durP2;ratioP2;P2;SDS_P1;SDS_P2;PMS_P1;PMS_P2;Temp;Humidity;BMP_temperature;BMP_pressure;BME280_temperature;BME280_humidity;BME280_pressure;Samples;Min_cycle;Max_cycle;Signal;HPM_P1;HPM_P2
2024/01/02 00:00:08;;;;;;;8.90;3.05;;;;;;;9.73;76.00;100397.28;5026828;27;96789;-75
2024/01/02 00:02:34;;;;;;;8.35;1.50;;;;;;;9.91;74.63;100393.13;5027999;27;97178;-74
2024/01/02 00:05:02;;;;;;;7.80;1.55;;;;;;;9.98;74.08;100397.19;5027987;27;98956;-73
2024/01/02 00:07:29;;;;;;;7.70;1.60;;;;;;;10.34;73.24;100405.50;5023122;27;98884;-74
2024/01/02 00:09:56;;;;;;;5.28;1.40;;;;;;;10.56;71.71;100411.66;5023538;27;97480;-73
2024/01/02 00:12:22;;;;;;;5.78;1.13;;;;;;;10.63;71.58;100399.91;5023993;28;97220;-75
2024/01/02 00:14:48;;;;;;;7.82;1.48;;;;;;;10.64;71.54;100401.63;5028033;27;98817;-75
2024/01/02 00:17:15;;;;;;;5.32;1.38;;;;;;;10.68;71.15;100395.31;5026433;27;99355;-75
2024/01/02 00:19:41;;;;;;;6.38;1.55;;;;;;;10.90;70.59;100386.44;5015839;27;97449;-76
2024/01/02 00:22:07;;;;;;;4.20;1.10;;;;;;;11.06;69.59;100387.53;5028273;27;97031;-76
2024/01/02 00:24:35;;;;;;;5.30;1.30;;;;;;;10.65;70.96;100387.50;5028031;27;98935;-76
2024/01/02 00:27:02;;;;;;;6.78;1.33;;;;;;;10.44;72.91;100390.13;5017498;27;99011;-75
2024/01/02 00:29:29;;;;;;;4.57;1.13;;;;;;;10.28;73.62;100393.41;5024350;27;97370;-76
2024/01/02 00:31:55;;;;;;;10.25;1.60;;;;;;;10.16;74.69;100390.38;5023707;27;96827;-76
2024/01/02 00:34:23;;;;;;;4.95;1.25;;;;;;;10.29;74.33;100399.56;5031375;27;97867;-75
2024/01/02 00:36:49;;;;;;;2.95;0.80;;;;;;;10.09;75.09;100392.41;5028125;27;98796;-75
2024/01/02 00:39:16;;;;;;;4.97;1.15;;;;;;;10.40;74.30;100389.41;5031035;27;96695;-75
2024/01/02 00:41:43;;;;;;;7.30;1.40;;;;;;;10.57;73.59;100389.56;5025041;27;97303;-74
2024/01/02 00:44:10;;;;;;;5.15;1.23;;;;;;;10.83;72.60;100392.94;5027958;27;103052;-75
2024/01/02 00:46:36;;;;;;;9.15;1.55;;;;;;;10.75;72.42;100383.56;5032099;27;100086;-74
2024/01/02 00:49:02;;;;;;;3.83;1.15;;;;;;;10.76;72.94;100379.97;5031124;27;96772;-75
2024/01/02 00:51:29;;;;;;;3.97;1.17;;;;;;;10.41;73.76;100377.94;5026543;27;96946;-74
2024/01/02 00:53:55;;;;;;;7.40;1.20;;;;;;;10.23;75.29;100378.69;5028648;27;99049;-74
2024/01/02 00:56:22;;;;;;;7.15;1.58;;;;;;;10.37;74.56;100381.63;5027239;27;97746;-74
2024/01/02 00:58:49;;;;;;;4.35;1.17;;;;;;;10.47;74.25;100360.97;5030652;27;96773;-74
2024/01/02 01:01:17;;;;;;;8.25;1.30;;;;;;;10.50;73.77;100366.97;5033041;27;97438;-74
2024/01/02 01:03:44;;;;;;;9.60;1.35;;;;;;;10.48;73.98;100357.41;5027885;28;99124;-75
2024/01/02 01:06:10;;;;;;;8.15;1.38;;;;;;;10.32;74.20;100352.75;5032081;27;98833;-75
2024/01/02 01:08:36;;;;;;;7.15;1.55;;;;;;;10.48;74.26;100360.91;5025857;28;101329;-76
2024/01/02 01:11:03;;;;;;;5.05;1.40;;;;;;;10.64;73.53;100364.63;5025403;27;97569;-75
2024/01/02 01:13:29;;;;;;;5.93;1.48;;;;;;;10.46;73.64;100357.47;5032593;27;101474;-75
2024/01/02 01:15:57;;;;;;;6.00;1.60;;;;;;;10.62;73.35;100349.78;5026135;27;99228;-75
2024/01/02 01:18:23;;;;;;;5.60;1.52;;;;;;;10.50;73.37;100356.41;5027568;27;97286;-74
2024/01/02 01:20:50;;;;;;;10.15;1.65;;;;;;;10.56;73.33;100353.53;5026294;27;100839;-74
2024/01/02 01:23:16;;;;;;;9.50;1.52;;;;;;;10.45;73.89;100350.47;5031671;27;99019;-75
2024/01/02 01:25:43;;;;;;;6.72;1.60;;;;;;;10.48;73.37;100353.00;5027316;27;98877;-74
2024/01/02 01:28:09;;;;;;;6.25;1.35;;;;;;;10.53;73.57;100350.16;5025361;27;96847;-74
2024/01/02 01:30:36;;;;;;;6.72;1.38;;;;;;;10.67;72.37;100338.09;5024499;27;96864;-74
2024/01/02 01:33:09;;;;;;;9.10;1.60;;;;;;;10.61;72.34;100332.19;5028252;27;99193;-74
2024/01/02 01:35:35;;;;;;;6.63;1.38;;;;;;;10.55;72.53;100341.25;5031068;27;98854;-73
2024/01/02 01:38:02;;;;;;;5.25;1.55;;;;;;;10.48;72.55;100341.56;5020288;27;97431;-74
2024/01/02 01:40:29;;;;;;;9.43;1.40;;;;;;;10.49;72.56;100343.28;5028696;27;97324;-74
2024/01/02 01:42:56;;;;;;;7.93;1.88;;;;;;;10.29;73.01;100341.47;5017345;27;98997;-74
2024/01/02 01:45:22;;;;;;;9.20;2.10;;;;;;;10.16;73.25;100345.50;5025082;27;99675;-74
2024/01/02 01:47:49;;;;;;;10.02;2.10;;;;;;;10.27;73.03;100343.28;5027920;27;98187;-74
2024/01/02 01:50:17;;;;;;;10.60;1.60;;;;;;;10.28;73.06;100348.53;5027507;27;97874;-74
2024/01/02 01:52:46;;;;;;;11.68;1.70;;;;;;;10.11;73.06;100345.66;5026704;27;99867;-74
2024/01/02 01:55:14;;;;;;;8.32;1.52;;;;;;;10.01;73.29;100344.31;5019316;27;99164;-74
2024/01/02 01:57:42;;;;;;;10.15;2.00;;;;;;;10.12;73.40;100342.09;5029509;27;97221;-73
2024/01/02 02:00:10;;;;;;;6.82;1.63;;;;;;;10.20;72.46;100336.53;5021517;27;96836;-73
2024/01/02 02:03:03;;;;;;;10.55;1.70;;;;;;;10.04;73.77;100353.91;5024430;27;101826;-73
2024/01/02 02:05:33;;;;;;;11.43;1.60;;;;;;;9.60;75.18;100345.91;5026694;27;96758;-75
2024/01/02 02:07:59;;;;;;;15.30;2.13;;;;;;;9.75;74.47;100345.31;5021743;27;97342;-75
2024/01/02 02:10:26;;;;;;;7.40;1.42;;;;;;;9.93;73.74;100347.25;5026120;27;97255;-75
2024/01/02 02:12:54;;;;;;;4.63;1.13;;;;;;;9.91;73.70;100345.59;5027868;27;97845;-76
2024/01/02 02:15:20;;;;;;;12.70;1.67;;;;;;;9.80;73.39;100340.72;5024766;27;99105;-75
2024/01/02 02:17:46;;;;;;;11.43;1.67;;;;;;;9.65;74.09;100338.66;5019983;27;97269;-74
2024/01/02 02:20:13;;;;;;;12.30;1.95;;;;;;;9.62;74.15;100336.16;5028862;27;96872;-73
2024/01/02 02:22:45;;;;;;;11.98;1.52;;;;;;;9.66;73.95;100335.09;5023111;27;101356;-74
2024/01/02 02:25:12;;;;;;;12.43;1.55;;;;;;;9.58;74.06;100343.31;5029064;27;102212;-74
2024/01/02 02:27:38;;;;;;;8.13;1.30;;;;;;;9.56;74.26;100339.88;5023361;27;97043;-74
2024/01/02 02:30:05;;;;;;;11.45;1.77;;;;;;;9.44;74.65;100329.81;5026779;27;96810;-74
2024/01/02 02:32:32;;;;;;;9.77;1.90;;;;;;;9.43;74.89;100343.03;5030869;27;99215;-75
2024/01/02 02:34:59;;;;;;;15.50;1.73;;;;;;;9.69;73.71;100331.50;5025498;27;97676;-75
2024/01/02 02:37:25;;;;;;;10.57;1.90;;;;;;;9.46;73.86;100335.00;5022296;27;97623;-75
2024/01/02 02:39:53;;;;;;;12.77;2.10;;;;;;;9.55;74.02;100324.13;5029728;27;96945;-75
2024/01/02 02:42:19;;;;;;;9.52;1.98;;;;;;;9.44;74.24;100328.94;5024309;27;98885;-75
2024/01/02 02:44:45;;;;;;;11.27;1.80;;;;;;;9.46;74.33;100313.91;5026079;27;98930;-76
2024/01/02 02:47:12;;;;;;;10.82;2.85;;;;;;;9.49;73.85;100317.31;5023032;27;97336;-75
2024/01/02 02:49:39;;;;;;;10.43;1.77;;;;;;;9.44;74.29;100307.84;5020833;27;97333;-75
2024/01/02 02:52:07;;;;;;;9.05;1.92;;;;;;;9.44;73.99;100308.72;5029014;27;97597;-75
2024/01/02 02:54:33;;;;;;;10.35;1.90;;;;;;;9.57;73.70;100301.19;5027561;27;99785;-74
2024/01/02 02:57:01;;;;;;;13.07;2.13;;;;;;;9.47;73.81;100291.88;5027072;27;96830;-75
2024/01/02 02:59:28;;;;;;;8.30;1.50;;;;;;;9.37;74.24;100294.03;5023939;27;96761;-74
2024/01/02 03:01:54;;;;;;;13.85;2.25;;;;;;;9.45;74.11;100294.56;5026231;27;99026;-74
2024/01/02 03:04:21;;;;;;;7.88;2.03;;;;;;;9.32;74.38;100293.31;5021486;27;99321;-75
2024/01/02 03:06:47;;;;;;;9.75;1.40;;;;;;;9.42;74.14;100296.50;5025006;27;97962;-75
2024/01/02 03:09:13;;;;;;;13.93;1.85;;;;;;;9.48;73.73;100293.63;5026535;27;97193;-75
2024/01/02 03:11:40;;;;;;;11.43;1.83;;;;;;;9.27;73.91;100284.72;5024136;27;99475;-75
2024/01/02 03:14:08;;;;;;;12.70;2.00;;;;;;;9.30;74.43;100286.41;5025417;27;101036;-76
2024/01/02 03:16:35;;;;;;;16.17;1.83;;;;;;;9.50;73.87;100282.09;5029134;27;96961;-74
2024/01/02 03:19:01;;;;;;;11.15;1.98;;;;;;;9.48;73.28;100278.66;5027000;27;96876;-74
2024/01/02 03:21:28;;;;;;;11.20;1.90;;;;;;;9.41;73.45;100271.03;5022914;27;99334;-74
2024/01/02 03:23:58;;;;;;;14.65;2.05;;;;;;;9.41;73.25;100268.38;5023475;27;98062;-75
2024/01/02 03:26:24;;;;;;;13.32;1.65;;;;;;;9.48;73.49;100261.97;5022059;27;96945;-75
2024/01/02 03:28:51;;;;;;;9.38;1.40;;;;;;;9.36;73.24;100249.25;5022461;27;97148;-75
2024/01/02 03:31:19;;;;;;;14.32;1.77;;;;;;;9.26;73.56;100255.78;5027204;27;98978;-75
2024/01/02 03:33:45;;;;;;;19.33;1.80;;;;;;;9.47;73.21;100253.19;5021149;27;100566;-75
2024/01/02 03:36:18;;;;;;;15.20;2.20;;;;;;;9.35;73.68;100252.81;5027784;27;96820;-75
2024/01/02 03:38:45;;;;;;;9.75;2.70;;;;;;;9.26;73.99;100239.97;5028416;27;97294;-75
2024/01/02 03:41:11;;;;;;;13.13;2.30;;;;;;;9.24;73.61;100242.69;5024821;27;97877;-74
2024/01/02 03:43:38;;;;;;;17.08;3.25;;;;;;;9.35;73.45;100235.22;5023573;27;99657;-75
2024/01/02 03:46:04;;;;;;;15.20;2.05;;;;;;;9.29;73.47;100231.94;5024938;27;96689;-75
2024/01/02 03:48:32;;;;;;;13.73;1.92;;;;;;;9.00;74.57;100233.91;5026179;27;97220;-74
2024/01/02 03:51:00;;;;;;;16.83;2.42;;;;;;;9.00;75.14;100220.72;5025813;27;99193;-74
2024/01/02 03:53:27;;;;;;;16.70;2.30;;;;;;;9.12;74.40;100217.63;5018485;27;99087;-75
2024/01/02 03:55:53;;;;;;;16.15;2.13;;;;;;;9.27;74.40;100212.69;5024963;28;97251;-75
2024/01/02 03:58:20;;;;;;;8.52;1.88;;;;;;;9.32;73.33;100208.13;5022501;27;96897;-74
2024/01/02 04:00:46;;;;;;;14.95;2.42;;;;;;;9.52;72.37;100198.47;5027632;27;98918;-75
2024/01/02 04:03:13;;;;;;;11.30;1.77;;;;;;;9.44;72.98;100202.38;5024277;27;98999;-76
2024/01/02 04:05:40;;;;;;;13.98;2.47;;;;;;;9.42;72.70;100196.28;5029161;27;96895;-76
2024/01/02 04:08:07;;;;;;;14.52;2.72;;;;;;;9.41;72.87;100189.28;5030523;27;97399;-76
2024/01/02 04:10:34;;;;;;;13.52;2.63;;;;;;;9.20;73.24;100186.56;5025916;27;99275;-76
2024/01/02 04:13:01;;;;;;;13.88;2.20;;;;;;;9.36;72.54;100184.19;5031788;27;99473;-75
2024/01/02 04:15:28;;;;;;;13.90;2.00;;;;;;;9.35;72.72;100179.84;5029160;27;97219;-75
2024/01/02 04:17:54;;;;;;;10.73;2.50;;;;;;;9.25;73.05;100170.59;5024931;27;97121;-76
2024/01/02 04:20:21;;;;;;;14.30;2.05;;;;;;;9.12;73.65;100178.09;5029955;27;97783;-71
2024/01/02 04:22:54;;;;;;;16.00;2.45;;;;;;;9.09;73.44;100172.09;5030157;27;99679;-76
2024/01/02 04:25:20;;;;;;;17.35;2.80;;;;;;;9.30;72.48;100163.34;5019598;27;96851;-76
2024/01/02 04:27:46;;;;;;;16.73;2.53;;;;;;;9.28;72.69;100167.81;5025552;27;97250;-77
2024/01/02 04:30:16;;;;;;;11.20;2.13;;;;;;;9.15;73.33;100170.06;5025907;27;101007;-76
2024/01/02 04:32:42;;;;;;;14.50;1.88;;;;;;;9.04;73.34;100166.13;5031747;27;102176;-76
2024/01/02 04:35:09;;;;;;;18.92;3.20;;;;;;;9.09;73.39;100161.53;5023237;28;96697;-76
2024/01/02 04:37:35;;;;;;;17.02;2.22;;;;;;;9.00;73.78;100156.63;5030770;27;97624;-76
2024/01/02 04:40:04;;;;;;;17.23;2.22;;;;;;;8.96;73.70;100158.53;5031032;27;101953;-75
2024/01/02 04:42:35;;;;;;;20.17;2.83;;;;;;;8.93;74.30;100157.75;5023889;27;99185;-75
2024/01/02 04:45:01;;;;;;;16.00;2.75;;;;;;;9.08;73.22;100154.56;5028856;27;96786;-75
2024/01/02 04:47:28;;;;;;;13.52;1.65;;;;;;;8.93;73.81;100158.63;5024829;27;97172;-70
2024/01/02 04:49:55;;;;;;;19.20;2.50;;;;;;;9.12;73.24;100151.72;5027406;27;98941;-70
2024/01/02 04:52:21;;;;;;;13.32;2.25;;;;;;;8.88;73.98;100150.03;5029937;27;99219;-70
2024/01/02 04:54:48;;;;;;;10.98;1.65;;;;;;;9.04;73.47;100145.91;5032749;27;97073;-76
2024/01/02 04:57:16;;;;;;;14.27;2.60;;;;;;;8.98;73.98;100135.63;5029152;27;97015;-74
2024/01/02 04:59:42;;;;;;;10.30;2.65;;;;;;;8.88;73.97;100147.41;5029504;27;98950;-71
2024/01/02 05:02:09;;;;;;;13.18;2.22;;;;;;;8.99;73.90;100136.47;5019171;27;99572;-70
2024/01/02 05:04:36;;;;;;;14.27;2.80;;;;;;;8.81;74.50;100124.84;5023544;27;97126;-70
2024/01/02 05:07:02;;;;;;;14.88;2.30;;;;;;;8.75;74.31;100114.53;5027541;27;96845;-69
2024/01/02 05:09:29;;;;;;;8.70;1.92;;;;;;;8.81;74.28;100114.31;5025297;27;101020;-70
2024/01/02 05:11:55;;;;;;;18.02;2.17;;;;;;;8.81;74.36;100103.75;5024325;27;98752;-69
2024/01/02 05:14:23;;;;;;;9.35;1.48;;;;;;;8.83;73.37;100096.66;5016151;27;97876;-70
2024/01/02 05:16:50;;;;;;;13.82;2.45;;;;;;;8.96;73.35;100089.16;5022097;27;97659;-70
2024/01/02 05:19:18;;;;;;;14.25;2.08;;;;;;;9.04;72.90;100084.44;5020638;27;98884;-70
2024/01/02 05:21:44;;;;;;;7.65;1.70;;;;;;;8.89;73.60;100083.25;5031423;27;99675;-71
2024/01/02 05:24:11;;;;;;;13.27;1.83;;;;;;;8.96;73.31;100083.88;5025171;27;97333;-70
2024/01/02 05:26:38;;;;;;;14.35;1.80;;;;;;;8.85;73.91;100086.94;5020977;27;96822;-71
2024/01/02 05:29:04;;;;;;;10.10;1.83;;;;;;;8.99;73.16;100087.22;5028574;27;99206;-70
2024/01/02 05:31:32;;;;;;;14.15;2.92;;;;;;;9.01;72.84;100077.50;5026886;27;99164;-70
2024/01/02 05:33:58;;;;;;;6.63;1.23;;;;;;;9.00;73.18;100073.16;5023639;27;99127;-70
2024/01/02 05:36:25;;;;;;;8.13;1.70;;;;;;;8.95;73.06;100069.84;5025965;27;97051;-70
2024/01/02 05:38:51;;;;;;;10.93;2.00;;;;;;;9.01;73.09;100074.88;5030103;27;101810;-70
2024/01/02 05:41:18;;;;;;;10.40;1.90;;;;;;;8.91;73.19;100070.03;5024917;27;98178;-70
2024/01/02 05:43:44;;;;;;;13.50;2.42;;;;;;;8.81;73.22;100061.63;5028625;27;96776;-70
2024/01/02 05:46:10;;;;;;;11.27;1.85;;;;;;;8.87;73.44;100058.75;5031331;27;97240;-70
2024/01/02 05:48:38;;;;;;;13.45;2.58;;;;;;;8.92;72.59;100062.06;5024328;27;99134;-70
2024/01/02 05:51:05;;;;;;;10.35;2.05;;;;;;;8.82;73.44;100059.84;5027363;27;99412;-70
2024/01/02 05:53:31;;;;;;;14.68;2.47;;;;;;;8.79;73.09;100052.94;5021559;27;96766;-70
2024/01/02 05:55:57;;;;;;;11.65;2.13;;;;;;;8.78;73.44;100053.84;5025164;27;96827;-71
2024/01/02 05:58:24;;;;;;;11.82;1.80;;;;;;;8.85;73.32;100055.31;5028408;27;101579;-69
2024/01/02 06:00:50;;;;;;;13.95;2.10;;;;;;;8.83;72.82;100046.63;5030402;27;98907;-70
2024/01/02 06:03:17;;;;;;;14.18;2.00;;;;;;;8.90;72.87;100036.69;5030848;27;97342;-71
2024/01/02 06:05:45;;;;;;;11.63;2.13;;;;;;;8.77;73.09;100031.91;5030944;27;96767;-71
2024/01/02 06:08:11;;;;;;;5.82;1.73;;;;;;;8.80;73.38;100023.00;5018548;27;99312;-70
2024/01/02 06:10:38;;;;;;;8.88;1.50;;;;;;;8.83;72.87;100019.41;5027317;27;98910;-70
2024/01/02 06:13:05;;;;;;;10.50;2.50;;;;;;;8.85;73.15;100013.19;5026542;27;96752;-70
2024/01/02 06:15:32;;;;;;;11.77;2.03;;;;;;;8.73;73.49;100006.59;5031083;27;97353;-70
2024/01/02 06:17:58;;;;;;;10.75;2.00;;;;;;;8.91;72.72;99998.91;5027707;27;101527;-71
2024/01/02 06:20:25;;;;;;;13.30;1.88;;;;;;;8.82;73.00;100001.88;5020323;27;99055;-70
2024/01/02 06:22:52;;;;;;;10.57;2.00;;;;;;;8.63;73.88;99996.50;5017941;27;97269;-71
2024/01/02 06:25:19;;;;;;;11.93;1.80;;;;;;;8.68;73.54;99995.38;5027632;27;97390;-70
2024/01/02 06:27:45;;;;;;;11.15;1.67;;;;;;;8.68;73.99;99992.75;5024387;27;100919;-70
2024/01/02 06:30:12;;;;;;;13.07;2.15;;;;;;;8.72;73.98;99981.19;5026465;27;99467;-70
2024/01/02 06:32:38;;;;;;;7.15;2.08;;;;;;;8.45;74.36;99982.28;5027789;27;97144;-70
2024/01/02 06:35:05;;;;;;;9.40;1.58;;;;;;;8.59;74.23;99977.34;5031276;27;96798;-70
2024/01/02 06:37:32;;;;;;;12.57;2.17;;;;;;;8.74;74.05;99983.75;5029104;27;98911;-69
2024/01/02 06:40:00;;;;;;;11.60;2.30;;;;;;;8.76;73.74;99979.28;5023915;27;98124;-70
2024/01/02 06:42:26;;;;;;;11.13;2.20;;;;;;;8.63;74.31;99985.97;5018292;27;97178;-71
2024/01/02 06:44:53;;;;;;;22.33;2.33;;;;;;;8.68;74.62;99973.47;5024238;27;97399;-71
2024/01/02 06:47:19;;;;;;;15.75;2.83;;;;;;;8.72;74.44;99973.28;5023027;27;99757;-71
2024/01/02 06:49:46;;;;;;;9.68;2.10;;;;;;;8.83;73.68;99972.00;5024352;27;99267;-71
2024/01/02 06:52:12;;;;;;;10.25;2.45;;;;;;;9.02;72.93;99968.53;5026512;27;97097;-71
2024/01/02 06:54:39;;;;;;;6.25;1.77;;;;;;;9.02;72.93;99962.41;5029670;27;96957;-71
2024/01/02 06:57:07;;;;;;;9.50;2.00;;;;;;;9.01;72.88;99974.72;5023036;27;99004;-70
2024/01/02 06:59:34;;;;;;;7.57;1.98;;;;;;;9.23;71.74;99976.47;5027991;27;99018;-69
2024/01/02 07:02:00;;;;;;;11.68;2.15;;;;;;;8.98;72.71;99966.09;5022777;27;97203;-70
2024/01/02 07:04:27;;;;;;;9.57;2.60;;;;;;;9.03;72.56;99965.00;5027449;27;98007;-70
2024/01/02 07:06:53;;;;;;;10.52;2.08;;;;;;;8.89;73.22;99964.69;5025520;27;97594;-72
2024/01/02 07:09:20;;;;;;;12.15;1.70;;;;;;;8.69;73.69;99960.22;5028781;27;98705;-70
2024/01/02 07:11:47;;;;;;;10.60;1.95;;;;;;;8.89;73.49;99959.44;5027731;27;96689;-71
2024/01/02 07:14:16;;;;;;;7.60;1.90;;;;;;;8.86;73.58;99956.91;5023884;28;97000;-71
2024/01/02 07:16:42;;;;;;;17.80;2.03;;;;;;;8.98;73.12;99951.16;5028716;27;99617;-70
2024/01/02 07:19:08;;;;;;;9.95;1.63;;;;;;;8.78;73.71;99949.34;5027561;27;97645;-75
2024/01/02 07:21:35;;;;;;;9.15;2.00;;;;;;;8.82;73.58;99939.53;5028541;27;97133;-74
2024/01/02 07:24:01;;;;;;;14.10;2.40;;;;;;;8.75;74.21;99943.31;5026003;27;96829;-74
2024/01/02 07:26:28;;;;;;;14.65;2.40;;;;;;;8.77;74.05;99934.44;5028571;27;99098;-75
2024/01/02 07:28:54;;;;;;;10.55;1.95;;;;;;;8.78;74.00;99933.53;5025137;27;101864;-75
2024/01/02 07:31:22;;;;;;;7.30;1.95;;;;;;;8.81;74.04;99919.34;5022098;27;96645;-73
2024/01/02 07:33:48;;;;;;;10.40;2.17;;;;;;;8.75;74.13;99917.84;5025806;27;96726;-73
2024/01/02 07:36:15;;;;;;;8.43;2.20;;;;;;;8.72;74.65;99914.50;5014428;27;100027;-74
2024/01/02 07:38:42;;;;;;;8.13;2.30;;;;;;;8.65;75.24;99903.34;5017871;27;99798;-76
2024/01/02 07:41:08;;;;;;;8.55;2.72;;;;;;;8.77;74.70;99901.97;5021194;27;97156;-71
2024/01/02 07:43:34;;;;;;;9.95;2.72;;;;;;;8.70;74.94;99903.16;5028761;27;97004;-71
2024/01/02 07:46:01;;;;;;;9.95;2.05;;;;;;;8.82;74.04;99902.63;5022359;27;98848;-70
2024/01/02 07:48:29;;;;;;;13.07;2.22;;;;;;;8.67;75.05;99898.00;5022069;27;100173;-70
2024/01/02 07:50:55;;;;;;;12.57;2.13;;;;;;;8.74;75.14;99887.16;5021540;27;97146;-69
2024/01/02 07:53:22;;;;;;;10.77;2.40;;;;;;;8.86;74.88;99883.13;5022983;27;97420;-72
2024/01/02 07:55:49;;;;;;;9.20;1.75;;;;;;;8.74;74.80;99875.75;5022011;27;99257;-72
2024/01/02 07:58:15;;;;;;;11.52;2.05;;;;;;;8.59;75.64;99874.63;5025785;27;97490;-70
2024/01/02 08:00:41;;;;;;;12.40;1.63;;;;;;;8.80;75.40;99864.97;5020722;27;97043;-72
2024/01/02 08:03:09;;;;;;;10.73;2.40;;;;;;;8.72;75.62;99860.03;5027384;27;96898;-72
2024/01/02 08:05:37;;;;;;;9.07;2.65;;;;;;;8.70;75.60;99855.75;5021142;27;98974;-71
2024/01/02 08:08:05;;;;;;;9.60;1.58;;;;;;;8.82;75.50;99860.50;5021034;27;98079;-70
2024/01/02 08:10:32;;;;;;;12.55;1.15;;;;;;;8.69;75.39;99854.03;5026135;27;97845;-71
2024/01/02 08:12:58;;;;;;;6.20;1.65;;;;;;;8.83;75.40;99854.31;5024426;27;100666;-70
2024/01/02 08:15:25;;;;;;;6.32;2.17;;;;;;;9.00;74.76;99849.16;5023645;27;99259;-70
2024/01/02 08:17:51;;;;;;;9.20;2.38;;;;;;;9.09;74.69;99843.50;5026007;27;98753;-71
2024/01/02 08:20:18;;;;;;;12.93;2.63;;;;;;;8.99;74.73;99842.16;5019362;27;99367;-71
2024/01/02 08:22:45;;;;;;;9.52;1.73;;;;;;;9.20;74.25;99840.38;5022744;27;96888;-71
2024/01/02 08:25:12;;;;;;;10.10;2.00;;;;;;;9.20;74.20;99830.69;5023218;27;100333;-72
2024/01/02 08:27:39;;;;;;;10.88;1.70;;;;;;;9.26;74.12;99831.34;5024825;27;99268;-71
2024/01/02 08:30:07;;;;;;;9.77;2.15;;;;;;;9.20;74.04;99828.06;5022020;27;96860;-72
2024/01/02 08:32:34;;;;;;;5.10;1.23;;;;;;;9.18;74.24;99821.16;5022889;27;97574;-71
2024/01/02 08:35:01;;;;;;;11.68;1.60;;;;;;;9.35;74.10;99825.66;5019625;27;99231;-70
2024/01/02 08:37:27;;;;;;;6.03;2.15;;;;;;;9.10;74.60;99824.13;5017239;27;99998;-71
2024/01/02 08:39:55;;;;;;;7.55;1.40;;;;;;;9.24;74.63;99820.03;5023682;27;96673;-71
2024/01/02 08:42:22;;;;;;;7.22;1.45;;;;;;;9.20;75.23;99814.88;5026771;27;96798;-71
2024/01/02 08:44:48;;;;;;;7.28;1.55;;;;;;;9.23;75.04;99813.03;5025045;27;98782;-72
2024/01/02 08:47:15;;;;;;;8.15;1.90;;;;;;;9.26;75.22;99804.97;5023052;27;98949;-72
2024/01/02 08:49:41;;;;;;;7.25;1.65;;;;;;;9.24;75.50;99801.59;5023715;27;97655;-72
2024/01/02 08:52:07;;;;;;;5.68;1.50;;;;;;;9.21;75.53;99799.94;5026715;27;97360;-74
2024/01/02 08:54:34;;;;;;;6.75;1.73;;;;;;;9.33;75.64;99787.97;5019414;27;100621;-74
2024/01/02 08:57:01;;;;;;;7.18;1.52;;;;;;;9.26;76.02;99803.19;5026157;27;98858;-74
2024/01/02 08:59:28;;;;;;;7.57;1.63;;;;;;;9.34;76.11;99787.91;5024777;27;97449;-73
2024/01/02 09:01:54;;;;;;;6.22;1.67;;;;;;;9.27;76.55;99790.88;5017520;27;97464;-75
2024/01/02 09:04:20;;;;;;;7.30;1.73;;;;;;;8.96;78.22;99784.34;5022661;27;99185;-74
2024/01/02 09:06:47;;;;;;;5.53;1.48;;;;;;;9.20;77.91;99785.03;5025640;27;101465;-76
2024/01/02 09:09:12;;;;;;;8.57;1.60;;;;;;;9.29;77.24;99771.44;5026397;27;97206;-74
2024/01/02 09:11:39;;;;;;;;;;;;;;;8.92;79.45;99777.53;5025075;27;97225;-74
2024/01/02 09:14:07;;;;;;;4.78;1.40;;;;;;;8.98;79.49;99777.25;5027451;27;99131;-73
2024/01/02 09:16:35;;;;;;;4.57;1.40;;;;;;;9.18;79.00;99769.31;5023560;27;98988;-74
2024/01/02 09:19:02;;;;;;;7.80;1.45;;;;;;;9.40;78.12;99757.75;5021759;27;99651;-74
2024/01/02 09:21:28;;;;;;;8.00;1.30;;;;;;;9.55;77.58;99751.78;5020836;27;97149;-74
2024/01/02 09:23:55;;;;;;;7.30;1.27;;;;;;;9.31;78.65;99753.78;5019505;27;99321;-74
2024/01/02 09:26:24;;;;;;;8.20;1.67;;;;;;;9.34;79.23;99752.78;5024784;27;98885;-74
2024/01/02 09:28:50;;;;;;;9.05;1.88;;;;;;;9.35;79.12;99759.75;5024676;27;96795;-74
2024/01/02 09:31:19;;;;;;;6.90;1.40;;;;;;;9.19;80.07;99747.28;5018476;27;97842;-74
2024/01/02 09:33:45;;;;;;;4.82;1.63;;;;;;;9.23;80.33;99750.63;5018251;27;98731;-75
2024/01/02 09:36:14;;;;;;;7.05;1.30;;;;;;;9.24;80.34;99740.97;5028524;27;98790;-75
2024/01/02 09:38:40;;;;;;;6.28;2.17;;;;;;;9.29;81.22;99733.69;5019663;27;100318;-75
2024/01/02 09:41:23;;;;;;;11.32;1.63;;;;;;;9.26;80.54;99739.94;5020893;27;97020;-74
2024/01/02 09:44:00;;;;;;;6.85;1.60;;;;;;;9.44;80.70;99738.25;5017442;27;97827;-74
2024/01/02 09:46:39;;;;;;;6.57;1.98;;;;;;;9.28;80.87;99726.69;5026953;27;98936;-74
2024/01/02 09:49:20;;;;;;;6.32;1.48;;;;;;;9.31;81.56;99723.94;5021565;27;97411;-73
2024/01/02 09:52:01;;;;;;;10.15;1.60;;;;;;;9.31;81.32;99714.25;5024291;27;99561;-76
2024/01/02 09:54:39;;;;;;;9.95;1.45;;;;;;;9.52;80.73;99710.56;5025415;27;102461;-74
2024/01/02 09:57:14;;;;;;;4.97;1.23;;;;;;;9.49;80.92;99715.16;5022469;27;99169;-74
2024/01/02 10:00:02;;;;;;;4.35;1.65;;;;;;;9.18;81.58;99708.69;5024398;27;97678;-74
2024/01/02 10:02:56;;;;;;;6.97;2.42;;;;;;;9.34;81.94;99695.63;5025253;27;96716;-74
2024/01/02 10:05:37;;;;;;;7.30;1.67;;;;;;;9.05;83.36;99683.81;5024205;27;98909;-74
2024/01/02 10:08:42;;;;;;;6.25;2.05;;;;;;;9.11;83.42;99678.28;5023307;28;97595;-73
2024/01/02 10:11:24;;;;;;;11.30;3.67;;;;;;;9.13;84.01;99673.75;5014754;27;100465;-75
2024/01/02 10:13:59;;;;;;;9.40;1.90;;;;;;;9.06;84.35;99664.44;5022819;27;96738;-75
2024/01/02 10:16:33;;;;;;;10.27;2.00;;;;;;;9.25;83.08;99668.88;5025019;27;99199;-76
2024/01/02 10:19:15;;;;;;;4.75;2.03;;;;;;;9.43;83.22;99673.25;5027218;27;101116;-76
2024/01/02 10:21:51;;;;;;;8.60;1.90;;;;;;;9.33;83.21;99667.56;5022882;27;96756;-76
2024/01/02 10:24:31;;;;;;;7.00;1.70;;;;;;;9.23;83.15;99666.28;5026927;27;97125;-77
2024/01/02 10:27:05;;;;;;;6.75;1.55;;;;;;;9.09;84.69;99666.94;5026309;27;99574;-77
2024/01/02 10:29:43;;;;;;;7.15;1.60;;;;;;;9.28;84.07;99659.00;5031692;27;98081;-75
2024/01/02 10:32:13;;;;;;;3.83;1.88;;;;;;;9.35;83.71;99643.75;5027468;27;97239;-76
2024/01/02 10:34:48;;;;;;;8.60;1.75;;;;;;;9.29;83.69;99633.50;5022849;27;99089;-76
2024/01/02 10:37:17;;;;;;;6.78;1.70;;;;;;;9.12;84.29;99631.69;5020533;28;97767;-75
2024/01/02 10:39:46;;;;;;;5.60;1.63;;;;;;;9.16;84.44;99620.91;5022092;27;98799;-75
2024/01/02 10:42:31;;;;;;;3.28;1.30;;;;;;;9.28;84.12;99608.06;5026540;27;97269;-75
2024/01/02 10:45:10;;;;;;;6.15;2.60;;;;;;;9.26;84.39;99597.59;5025859;27;98187;-75
2024/01/02 10:47:47;;;;;;;4.75;1.42;;;;;;;9.51;83.61;99590.22;5026282;27;99561;-75
2024/01/02 10:50:20;;;;;;;6.07;1.60;;;;;;;9.68;83.09;99585.88;5023114;27;98910;-75
2024/01/02 10:52:58;;;;;;;6.60;1.35;;;;;;;9.55;83.08;99577.72;5027125;28;97428;-75
2024/01/02 10:55:28;;;;;;;4.15;1.27;;;;;;;9.66;82.34;99580.66;5026689;27;97552;-75
2024/01/02 10:58:01;;;;;;;6.47;1.40;;;;;;;9.72;81.81;99584.78;5023714;27;99068;-75
2024/01/02 11:00:32;;;;;;;4.47;1.55;;;;;;;9.64;82.74;99563.25;5024262;27;98932;-75
2024/01/02 11:03:07;;;;;;;6.65;1.60;;;;;;;9.83;82.27;99559.59;5028394;27;97781;-76
2024/01/02 11:05:39;;;;;;;2.88;1.20;;;;;;;9.66;82.55;99551.66;5014110;27;98094;-75
2024/01/02 11:08:13;;;;;;;5.20;1.80;;;;;;;9.51;83.06;99537.47;5024347;27;99009;-75
2024/01/02 11:10:49;;;;;;;7.45;1.35;;;;;;;9.54;83.19;99534.69;5024017;27;98814;-75
2024/01/02 11:13:18;;;;;;;4.32;1.48;;;;;;;9.43;83.63;99526.47;5023951;27;98396;-75
2024/01/02 11:15:47;;;;;;;4.88;1.30;;;;;;;9.41;84.43;99515.13;5026833;27;96742;-77
2024/01/02 11:18:14;;;;;;;4.45;1.50;;;;;;;9.50;83.51;99509.41;5023043;27;96760;-77
2024/01/02 11:20:52;;;;;;;8.63;1.67;;;;;;;9.51;83.60;99505.84;5017798;27;98926;-77
2024/01/02 11:23:23;;;;;;;6.85;1.88;;;;;;;9.59;83.64;99495.72;5025077;27;96740;-71
2024/01/02 11:25:56;;;;;;;4.10;1.20;;;;;;;9.75;82.67;99495.81;5021592;27;96711;-71
2024/01/02 11:28:25;;;;;;;2.97;2.60;;;;;;;9.84;82.33;99483.94;5026297;28;98992;-71
2024/01/02 11:30:53;;;;;;;4.40;1.90;;;;;;;10.16;81.00;99469.88;5021385;27;98932;-72
2024/01/02 11:33:25;;;;;;;4.03;1.90;;;;;;;10.12;80.36;99481.50;5021769;28;96806;-71
2024/01/02 11:36:08;;;;;;;4.18;1.73;;;;;;;10.07;80.77;99482.69;5025921;27;97100;-71